Time;durP1;ratioP1;P1;durP2;ratioP2;P2;SDS_P1;SDS_P2;PMS_P1;PMS_P2;Temp;Humidity;BMP_temperature;BMP_pressure;BME280_temperature;BME280_humidity;BME280_pressure;Samples;Min_cycle;Max_cycle;Signal;HPM_P1;HPM_P2
2022/10/14 00:01:31;;;;;;;13.30;7.60;;;9.40;99.90;;;;;;6370522;22;20492;-76
2022/10/14 00:03:58;;;;;;;72.50;11.68;;;9.40;99.90;;;;;;6342834;22;20093;-76
2022/10/14 00:06:27;;;;;;;59.60;9.02;;;9.40;99.90;;;;;;6370921;22;20015;-76
2022/10/14 00:08:54;;;;;;;32.75;8.38;;;9.40;99.90;;;;;;6342785;22;20091;-76
2022/10/14 00:11:26;;;;;;;49.67;8.65;;;9.40;99.90;;;;;;6342791;22;20037;-76
2022/10/14 00:13:57;;;;;;;13.50;7.35;;;9.40;99.90;;;;;;6371004;22;20017;-76
2022/10/14 00:16:29;;;;;;;73.72;9.93;;;9.40;99.90;;;;;;6370603;22;20033;-76
2022/10/14 00:18:56;;;;;;;35.90;8.05;;;9.30;99.90;;;;;;6370914;22;20010;-76
2022/10/14 00:21:21;;;;;;;21.80;7.47;;;9.40;99.90;;;;;;6342778;22;20126;-76
2022/10/14 00:23:47;;;;;;;23.83;7.63;;;9.30;99.90;;;;;;6342711;22;20499;-76
2022/10/14 00:26:28;;;;;;;18.70;7.53;;;9.30;99.90;;;;;;6342776;22;20033;-76
2022/10/14 00:28:54;;;;;;;28.02;7.75;;;9.30;99.90;;;;;;6370393;22;20085;-76
2022/10/14 00:31:20;;;;;;;34.40;8.15;;;9.20;99.90;;;;;;6370807;22;20060;-77
2022/10/14 00:33:46;;;;;;;53.42;8.68;;;9.20;99.90;;;;;;6371076;22;20376;-76
2022/10/14 00:36:13;;;;;;;55.55;8.65;;;9.20;99.90;;;;;;6372321;22;20438;-76
2022/10/14 00:38:39;;;;;;;33.65;7.50;;;9.10;99.90;;;;;;6372784;22;20011;-76
2022/10/14 00:41:06;;;;;;;22.58;7.60;;;9.20;99.90;;;;;;6344432;22;20018;-76
2022/10/14 00:43:54;;;;;;;78.10;10.60;;;9.20;99.90;;;;;;6372729;22;20115;-76
2022/10/14 00:46:20;;;;;;;23.33;7.63;;;9.20;99.90;;;;;;6372805;22;20014;-76
2022/10/14 00:48:46;;;;;;;19.58;7.05;;;9.30;99.90;;;;;;6344333;22;20014;-76
2022/10/14 00:51:12;;;;;;;71.82;9.40;;;9.30;99.90;;;;;;6344409;22;20067;-76
2022/10/14 00:53:42;;;;;;;165.73;12.88;;;9.20;99.90;;;;;;6372608;22;20085;-76
2022/10/14 00:56:09;;;;;;;98.32;10.80;;;9.30;99.90;;;;;;6344386;22;20021;-76
2022/10/14 00:58:36;;;;;;;73.05;10.68;;;9.30;99.90;;;;;;6344358;22;20018;-77
2022/10/14 01:01:02;;;;;;;63.70;9.50;;;9.30;99.90;;;;;;6372134;22;20461;-76
2022/10/14 01:03:27;;;;;;;22.23;8.18;;;9.30;99.90;;;;;;6372105;22;20020;-76
2022/10/14 01:06:06;;;;;;;37.55;8.63;;;9.30;99.90;;;;;;6344234;22;20042;-76
2022/10/14 01:09:06;;;;;;;42.22;8.52;;;9.20;99.90;;;;;;6372098;22;20107;-76
2022/10/14 01:11:59;;;;;;;30.70;7.72;;;9.30;99.90;;;;;;6344181;22;20018;-77
2022/10/14 01:14:40;;;;;;;69.47;9.63;;;9.30;99.90;;;;;;6372460;22;20014;-77
2022/10/14 01:17:33;;;;;;;139.38;12.07;;;9.30;99.90;;;;;;6344125;22;20097;-76
2022/10/14 01:20:38;;;;;;;76.32;9.73;;;9.30;99.90;;;;;;6245155;23;20020;-77
2022/10/14 01:23:19;;;;;;;57.13;9.13;;;9.30;99.90;;;;;;6372368;22;20017;-77
2022/10/14 01:26:03;;;;;;;39.03;8.52;;;9.30;99.90;;;;;;6371962;22;20018;-76
2022/10/14 01:28:40;;;;;;;49.53;9.30;;;9.30;99.90;;;;;;6343980;22;20014;-76
2022/10/14 01:31:17;;;;;;;65.15;10.48;;;9.30;99.90;;;;;;6372487;22;20019;-76
2022/10/14 01:33:46;;;;;;;23.17;7.63;;;9.30;99.90;;;;;;6373058;22;20064;-76
2022/10/14 01:36:39;;;;;;;18.48;6.95;;;9.40;99.90;;;;;;6371827;22;20405;-76
2022/10/14 01:39:11;;;;;;;24.17;8.15;;;9.30;99.90;;;;;;6372312;22;20053;-76
2022/10/14 01:45:19;;;;;;;20.70;6.85;;;9.30;99.90;;;;;;6260346;22;20023;-76
2022/10/14 01:47:49;;;;;;;15.00;6.68;;;9.30;99.90;;;;;;6343642;22;20014;-76
2022/10/14 01:50:18;;;;;;;24.77;7.97;;;9.30;99.90;;;;;;6371998;22;20049;-76
2022/10/14 01:52:57;;;;;;;27.13;7.65;;;9.30;99.90;;;;;;6371559;22;20456;-76
2022/10/14 01:55:27;;;;;;;53.38;8.43;;;9.20;99.90;;;;;;6343809;22;20106;-77
2022/10/14 01:57:55;;;;;;;31.65;7.45;;;9.20;99.90;;;;;;6372112;22;20015;-76
2022/10/14 02:00:21;;;;;;;34.00;7.30;;;9.30;99.90;;;;;;6371419;22;20037;-76
2022/10/14 02:02:47;;;;;;;40.92;7.75;;;9.20;99.90;;;;;;6371845;22;20445;-76
2022/10/14 02:05:37;;;;;;;30.27;7.65;;;9.20;99.90;;;;;;6343710;22;20017;-76
2022/10/14 02:08:15;;;;;;;36.95;7.28;;;9.20;99.90;;;;;;6343667;22;20147;-77
2022/10/14 02:11:03;;;;;;;24.45;7.43;;;9.10;99.90;;;;;;6343722;22;20018;-76
2022/10/14 02:14:13;;;;;;;45.15;8.65;;;9.20;99.90;;;;;;6371539;22;20015;-77
2022/10/14 02:17:00;;;;;;;41.30;7.88;;;9.10;99.90;;;;;;6219170;23;20456;-77
2022/10/14 02:19:54;;;;;;;27.15;6.93;;;9.10;99.90;;;;;;6244660;23;20027;-76
2022/10/14 02:22:32;;;;;;;21.85;6.57;;;9.10;99.90;;;;;;6319462;22;20018;-76
2022/10/14 02:25:21;;;;;;;11.68;6.43;;;9.10;99.90;;;;;;6371437;22;20018;-76
2022/10/14 02:27:49;;;;;;;35.20;7.22;;;9.10;99.90;;;;;;6342489;22;20015;-76
2022/10/14 02:30:16;;;;;;;28.85;7.07;;;9.10;99.90;;;;;;6371524;22;20118;-76
2022/10/14 02:32:44;;;;;;;40.40;7.82;;;9.00;99.90;;;;;;6371656;22;20098;-77
2022/10/14 02:35:11;;;;;;;60.70;8.27;;;9.00;99.90;;;;;;6343458;22;20026;-76
2022/10/14 02:37:38;;;;;;;31.25;7.93;;;9.00;99.90;;;;;;6343458;22;20085;-76
2022/10/14 02:40:16;;;;;;;38.83;7.43;;;9.00;99.90;;;;;;6343385;22;20022;-76
2022/10/14 02:42:42;;;;;;;34.35;7.55;;;9.00;99.90;;;;;;6371534;22;20011;-76
2022/10/14 02:45:09;;;;;;;71.32;8.60;;;9.00;99.90;;;;;;6371502;22;20080;-76
2022/10/14 02:47:35;;;;;;;32.05;7.90;;;9.00;99.90;;;;;;6371443;22;20014;-76
2022/10/14 02:50:01;;;;;;;54.67;9.05;;;9.00;99.90;;;;;;6371365;22;20025;-76
2022/10/14 02:52:27;;;;;;;77.00;10.52;;;9.00;99.90;;;;;;6371529;22;20038;-76
2022/10/14 02:54:53;;;;;;;65.68;9.88;;;9.00;99.90;;;;;;6343275;22;20095;-77
2022/10/14 02:57:18;;;;;;;94.32;10.73;;;9.00;99.90;;;;;;6343264;22;20018;-76
2022/10/14 02:59:44;;;;;;;77.63;10.45;;;9.00;99.90;;;;;;6371405;22;20379;-76
2022/10/14 03:02:09;;;;;;;76.85;9.73;;;8.90;99.90;;;;;;6370916;22;20060;-77
2022/10/14 03:04:35;;;;;;;98.75;11.18;;;8.90;99.90;;;;;;6371375;22;20014;-76
2022/10/14 03:07:01;;;;;;;78.60;11.38;;;8.90;99.90;;;;;;6343112;22;20021;-77
2022/10/14 03:09:27;;;;;;;37.13;9.02;;;8.90;99.90;;;;;;6370859;22;20353;-76
2022/10/14 03:11:52;;;;;;;60.13;8.93;;;8.90;99.90;;;;;;6371264;22;20014;-76
2022/10/14 03:14:18;;;;;;;17.85;8.18;;;8.90;99.90;;;;;;6343215;22;20341;-77
2022/10/14 03:16:44;;;;;;;24.48;8.43;;;8.90;99.90;;;;;;6343155;22;20019;-76
2022/10/14 03:19:09;;;;;;;32.13;8.35;;;8.80;99.90;;;;;;6371176;22;20334;-76
2022/10/14 03:21:35;;;;;;;38.75;7.90;;;8.80;99.90;;;;;;6343158;22;20053;-76
2022/10/14 03:24:00;;;;;;;32.03;7.97;;;8.80;99.90;;;;;;6370781;22;20093;-77
2022/10/14 03:26:27;;;;;;;35.20;7.78;;;8.80;99.90;;;;;;6371077;22;20020;-76
2022/10/14 03:28:53;;;;;;;54.92;8.82;;;8.80;99.90;;;;;;6342983;22;20018;-77
2022/10/14 03:31:19;;;;;;;58.45;9.52;;;8.70;99.90;;;;;;6370840;22;20025;-77
2022/10/14 03:33:44;;;;;;;35.83;7.72;;;8.70;99.90;;;;;;6371098;22;20014;-77
2022/10/14 03:36:11;;;;;;;43.92;8.68;;;8.70;99.90;;;;;;6370774;22;20018;-77
2022/10/14 03:38:37;;;;;;;89.60;10.05;;;8.70;99.90;;;;;;6371110;22;20021;-76
2022/10/14 03:41:02;;;;;;;40.53;8.43;;;8.60;99.90;;;;;;6342973;22;20018;-77
2022/10/14 03:43:28;;;;;;;70.07;9.75;;;8.60;99.90;;;;;;6371148;22;20021;-77
2022/10/14 03:45:54;;;;;;;17.27;6.53;;;8.60;99.90;;;;;;6371077;22;20011;-77
2022/10/14 03:48:19;;;;;;;19.23;6.90;;;8.60;99.90;;;;;;6342934;22;20445;-77
2022/10/14 03:50:48;;;;;;;27.50;6.82;;;8.60;99.90;;;;;;6371014;22;20426;-76
2022/10/14 03:53:14;;;;;;;29.77;6.90;;;8.60;99.90;;;;;;6371077;22;20010;-77
2022/10/14 03:55:40;;;;;;;62.38;7.75;;;8.60;99.90;;;;;;6342936;22;20456;-76
2022/10/14 03:58:06;;;;;;;74.82;9.02;;;8.60;99.90;;;;;;6342805;22;20014;-76
2022/10/14 04:00:32;;;;;;;61.65;8.48;;;8.70;99.90;;;;;;6370649;22;20089;-76
2022/10/14 04:02:57;;;;;;;28.73;7.22;;;8.70;99.90;;;;;;6342856;22;20022;-76
2022/10/14 04:05:23;;;;;;;15.57;5.78;;;8.70;99.90;;;;;;6370940;22;20371;-76
2022/10/14 04:07:49;;;;;;;27.38;5.90;;;8.80;99.90;;;;;;6371100;22;20022;-76
2022/10/14 04:10:14;;;;;;;17.05;6.10;;;8.70;99.90;;;;;;6372011;22;20022;-76
2022/10/14 04:12:40;;;;;;;61.22;7.47;;;8.80;99.90;;;;;;6373222;22;20442;-77
2022/10/14 04:15:07;;;;;;;39.78;7.25;;;8.80;99.90;;;;;;6373028;22;20017;-77
2022/10/14 04:17:33;;;;;;;57.85;7.13;;;8.80;99.90;;;;;;6344773;22;20018;-77
2022/10/14 04:19:58;;;;;;;32.17;6.35;;;8.80;99.90;;;;;;6372999;22;20094;-77
2022/10/14 04:22:24;;;;;;;31.48;6.20;;;8.80;99.90;;;;;;6372936;22;20425;-77
2022/10/14 04:24:50;;;;;;;22.00;6.10;;;8.80;99.90;;;;;;6372899;22;20025;-77
2022/10/14 04:27:16;;;;;;;15.43;5.45;;;8.90;99.90;;;;;;6372633;22;20014;-77
2022/10/14 04:29:42;;;;;;;39.35;6.80;;;8.90;99.90;;;;;;6372445;22;20021;-77
2022/10/14 04:32:07;;;;;;;29.05;6.38;;;8.90;99.90;;;;;;6344548;22;20014;-77
2022/10/14 04:34:33;;;;;;;27.17;6.03;;;8.90;99.90;;;;;;6344625;22;20022;-77
2022/10/14 04:36:59;;;;;;;52.35;6.85;;;9.00;99.90;;;;;;6372781;22;20065;-77
2022/10/14 04:39:24;;;;;;;62.78;7.18;;;9.00;99.90;;;;;;6373709;22;20097;-77
2022/10/14 04:41:50;;;;;;;31.52;6.15;;;9.00;99.90;;;;;;6344373;22;20006;-77
2022/10/14 04:44:16;;;;;;;34.50;5.57;;;9.00;99.90;;;;;;6372681;22;20067;-77
2022/10/14 04:46:41;;;;;;;95.43;8.90;;;9.00;99.90;;;;;;6372722;22;20010;-77
2022/10/14 04:49:08;;;;;;;45.22;6.53;;;9.10;99.90;;;;;;6344350;22;20376;-77
2022/10/14 04:51:33;;;;;;;42.25;6.25;;;9.10;99.90;;;;;;6372264;22;20364;-77
2022/10/14 04:53:59;;;;;;;36.55;6.00;;;9.10;99.90;;;;;;6344320;22;20073;-77
2022/10/14 04:56:25;;;;;;;53.90;7.80;;;9.10;99.90;;;;;;6344270;22;20098;-77
2022/10/14 04:58:50;;;;;;;23.15;5.47;;;9.10;99.90;;;;;;6344785;22;20021;-77
2022/10/14 05:01:17;;;;;;;19.35;6.72;;;9.10;99.90;;;;;;6372339;22;20022;-77
2022/10/14 05:03:43;;;;;;;36.75;6.80;;;9.20;99.90;;;;;;6344216;22;20010;-77
2022/10/14 05:06:09;;;;;;;24.60;6.45;;;9.20;99.90;;;;;;6344294;22;20102;-77
2022/10/14 05:08:35;;;;;;;21.38;6.40;;;9.30;99.90;;;;;;6344111;22;20046;-77
2022/10/14 05:11:02;;;;;;;28.60;6.30;;;9.20;99.90;;;;;;6344172;22;20060;-77
2022/10/14 05:13:28;;;;;;;55.15;7.63;;;9.30;99.90;;;;;;6372137;22;20021;-77
2022/10/14 05:15:54;;;;;;;49.25;7.63;;;9.30;99.90;;;;;;6372386;22;20042;-77
2022/10/14 05:18:20;;;;;;;20.73;6.90;;;9.40;99.90;;;;;;6372265;22;20477;-77
2022/10/14 05:20:46;;;;;;;76.18;8.00;;;9.40;99.90;;;;;;6371722;22;20083;-77
2022/10/14 05:23:11;;;;;;;47.17;7.63;;;9.40;99.90;;;;;;6344047;22;20338;-77
2022/10/14 05:25:37;;;;;;;91.95;9.00;;;9.40;99.90;;;;;;6372331;22;20325;-77
2022/10/14 05:28:03;;;;;;;79.93;7.80;;;9.40;99.90;;;;;;6344027;22;20032;-76
2022/10/14 05:30:28;;;;;;;83.22;8.20;;;9.40;99.90;;;;;;6371820;22;20011;-77
2022/10/14 05:32:54;;;;;;;26.02;6.82;;;9.50;99.90;;;;;;6344009;22;20052;-77
2022/10/14 05:35:20;;;;;;;59.65;7.68;;;9.40;99.90;;;;;;6372227;22;20089;-77
2022/10/14 05:37:45;;;;;;;73.50;8.75;;;9.50;99.90;;;;;;6371871;22;20033;-77
2022/10/14 05:40:11;;;;;;;89.68;10.13;;;9.50;99.90;;;;;;6372423;22;20026;-77
2022/10/14 05:42:37;;;;;;;90.97;9.65;;;9.40;99.90;;;;;;6371856;22;20022;-77
2022/10/14 05:45:04;;;;;;;27.75;6.65;;;9.50;99.90;;;;;;6343947;22;20014;-77
2022/10/14 05:47:29;;;;;;;59.35;8.32;;;9.50;99.90;;;;;;6372089;22;20018;-77
2022/10/14 05:49:55;;;;;;;38.72;6.72;;;9.50;99.90;;;;;;6343494;22;20018;-77
2022/10/14 05:52:21;;;;;;;35.17;6.47;;;9.50;99.90;;;;;;6343189;22;20014;-77
2022/10/14 05:54:46;;;;;;;34.13;6.22;;;9.50;99.90;;;;;;6341972;22;20022;-77
2022/10/14 05:57:12;;;;;;;66.28;7.07;;;9.50;99.90;;;;;;6371930;22;20046;-77
2022/10/14 05:59:37;;;;;;;16.27;5.10;;;9.40;99.90;;;;;;6343761;22;20449;-77
2022/10/14 06:02:03;;;;;;;30.75;5.85;;;9.40;99.90;;;;;;6371366;22;20018;-77
2022/10/14 06:04:29;;;;;;;48.90;6.95;;;9.50;99.90;;;;;;6343640;22;20018;-77
2022/10/14 06:06:54;;;;;;;116.28;9.75;;;9.50;99.90;;;;;;6343519;22;20025;-77
2022/10/14 06:09:20;;;;;;;48.10;8.27;;;9.50;99.90;;;;;;6343514;22;20023;-77
2022/10/14 06:11:46;;;;;;;58.13;9.00;;;9.40;99.90;;;;;;6371404;22;20105;-77
2022/10/14 06:14:11;;;;;;;35.90;8.15;;;9.50;99.90;;;;;;6343508;22;20046;-77
2022/10/14 06:16:37;;;;;;;118.75;11.90;;;9.40;99.90;;;;;;6371360;22;20056;-77
2022/10/14 06:19:03;;;;;;;49.13;9.40;;;9.50;99.90;;;;;;6371664;22;20046;-77
2022/10/14 06:21:28;;;;;;;21.48;10.35;;;9.40;99.90;;;;;;6343395;22;20033;-78
2022/10/14 06:23:54;;;;;;;93.03;14.88;;;9.50;99.90;;;;;;6371619;22;20014;-77
2022/10/14 06:26:20;;;;;;;59.17;11.18;;;9.50;99.90;;;;;;6371684;22;20022;-78
2022/10/14 06:28:45;;;;;;;123.10;13.57;;;9.50;99.90;;;;;;6343264;22;20136;-78
2022/10/14 06:31:11;;;;;;;55.72;10.38;;;9.60;99.90;;;;;;6371521;22;20014;-77
2022/10/14 06:33:37;;;;;;;90.47;13.02;;;9.60;99.90;;;;;;6343192;22;20393;-78
2022/10/14 06:36:04;;;;;;;71.47;9.73;;;9.50;99.90;;;;;;6371401;22;20059;-78
2022/10/14 06:38:30;;;;;;;58.38;10.65;;;9.50;99.90;;;;;;6371447;22;20029;-78
2022/10/14 06:40:55;;;;;;;57.10;10.77;;;9.50;99.90;;;;;;6343160;22;20402;-78
2022/10/14 06:43:21;;;;;;;113.03;14.32;;;9.50;99.90;;;;;;6371460;22;20010;-78
2022/10/14 06:45:48;;;;;;;46.63;10.10;;;9.50;99.90;;;;;;6371322;22;20018;-77
2022/10/14 06:48:14;;;;;;;63.63;12.73;;;9.50;99.90;;;;;;6371078;22;20022;-77
2022/10/14 06:50:40;;;;;;;119.18;15.27;;;9.50;99.90;;;;;;6341650;22;20076;-78
2022/10/14 06:53:06;;;;;;;90.82;15.50;;;9.50;99.90;;;;;;6343110;22;20021;-77
2022/10/14 06:55:32;;;;;;;164.57;16.60;;;9.50;99.90;;;;;;6342996;22;20014;-76
2022/10/14 06:57:57;;;;;;;78.22;13.82;;;9.50;99.90;;;;;;6342831;22;20007;-77
2022/10/14 07:00:24;;;;;;;83.28;14.10;;;9.50;99.90;;;;;;6342788;22;20014;-78
2022/10/14 07:02:49;;;;;;;63.80;15.75;;;9.60;99.90;;;;;;6343054;22;20041;-76
2022/10/14 07:05:15;;;;;;;97.03;17.00;;;9.60;99.90;;;;;;6370563;22;20019;-77
2022/10/14 07:07:40;;;;;;;83.00;16.40;;;9.70;99.90;;;;;;6371127;22;20041;-76
2022/10/14 07:10:06;;;;;;;110.60;16.70;;;9.70;99.90;;;;;;6342704;22;20022;-77
2022/10/14 07:12:32;;;;;;;83.90;16.65;;;9.70;99.90;;;;;;6342830;22;20097;-76
2022/10/14 07:14:58;;;;;;;60.28;18.15;;;9.70;99.90;;;;;;6370992;22;20011;-76
2022/10/14 07:17:23;;;;;;;102.80;18.90;;;9.70;99.90;;;;;;6342679;22;20429;-77
2022/10/14 07:19:49;;;;;;;108.55;21.58;;;9.80;99.90;;;;;;6342723;22;20028;-76
2022/10/14 07:22:16;;;;;;;59.17;16.15;;;9.80;99.90;;;;;;6342870;22;20440;-76
2022/10/14 07:24:42;;;;;;;80.00;19.67;;;9.90;99.90;;;;;;6370485;22;20475;-78
2022/10/14 07:27:09;;;;;;;72.25;16.10;;;9.90;99.90;;;;;;6342622;22;20021;-76
2022/10/14 07:29:35;;;;;;;64.65;16.40;;;9.90;99.90;;;;;;6342648;22;20018;-76
2022/10/14 07:32:01;;;;;;;71.78;15.98;;;10.00;99.90;;;;;;6370737;22;20007;-76
2022/10/14 07:34:27;;;;;;;79.60;18.83;;;10.00;99.90;;;;;;6370748;22;20463;-77
2022/10/14 07:36:52;;;;;;;80.47;16.48;;;10.10;99.90;;;;;;6370790;22;20011;-77
2022/10/14 07:39:18;;;;;;;66.03;15.02;;;10.10;99.90;;;;;;6370798;22;20390;-77
2022/10/14 07:41:45;;;;;;;38.47;13.27;;;10.10;99.90;;;;;;6370648;22;20046;-77
2022/10/14 07:44:12;;;;;;;70.32;15.52;;;10.10;99.90;;;;;;6342254;22;20457;-77
2022/10/14 07:46:41;;;;;;;71.30;15.43;;;10.10;99.90;;;;;;6342630;22;20452;-77
2022/10/14 07:49:18;;;;;;;44.78;14.85;;;10.10;99.90;;;;;;6342483;22;20023;-76
2022/10/14 07:51:45;;;;;;;66.22;16.48;;;10.10;99.90;;;;;;6342677;22;20025;-77
2022/10/14 07:54:14;;;;;;;72.72;15.18;;;10.20;99.90;;;;;;6342514;22;20029;-77
2022/10/14 07:56:42;;;;;;;66.60;16.15;;;10.20;99.90;;;;;;6342530;22;20501;-77
2022/10/14 07:59:07;;;;;;;76.93;16.30;;;10.20;99.90;;;;;;6342547;22;20097;-77
2022/10/14 08:01:33;;;;;;;78.20;15.90;;;10.20;99.90;;;;;;6369876;22;20038;-77
2022/10/14 08:03:59;;;;;;;46.40;15.73;;;10.20;99.90;;;;;;6342169;22;20018;-77
2022/10/14 08:06:25;;;;;;;78.50;15.80;;;10.20;99.90;;;;;;6342492;22;20032;-77
2022/10/14 08:08:51;;;;;;;42.63;15.30;;;10.30;99.90;;;;;;6370202;22;20040;-77
2022/10/14 08:11:20;;;;;;;108.40;18.08;;;10.30;99.90;;;;;;6370250;22;20022;-77
2022/10/14 08:13:46;;;;;;;54.30;14.45;;;10.40;99.90;;;;;;6369648;22;20423;-78
2022/10/14 08:16:17;;;;;;;41.50;13.45;;;10.30;99.90;;;;;;6369940;22;20045;-77
2022/10/14 08:18:43;;;;;;;50.30;15.00;;;10.40;99.90;;;;;;6342398;22;20014;-78
2022/10/14 08:21:09;;;;;;;56.00;13.85;;;10.50;99.90;;;;;;6370566;22;20075;-77
2022/10/14 08:23:35;;;;;;;63.35;14.82;;;10.50;99.90;;;;;;6342435;22;20315;-76
2022/10/14 08:26:00;;;;;;;51.55;14.90;;;10.50;99.90;;;;;;6342463;22;20380;-77
2022/10/14 08:28:26;;;;;;;69.88;14.40;;;10.50;99.90;;;;;;6342572;22;20437;-77
2022/10/14 08:30:52;;;;;;;34.78;13.68;;;10.60;99.90;;;;;;6370557;22;20021;-77
2022/10/14 08:33:18;;;;;;;37.83;14.50;;;10.60;99.90;;;;;;6342330;22;20026;-77
2022/10/14 08:35:44;;;;;;;55.13;14.30;;;10.60;99.90;;;;;;6342254;22;20018;-76
2022/10/14 08:38:10;;;;;;;48.08;14.35;;;10.70;99.90;;;;;;6342405;22;20021;-77
2022/10/14 08:40:55;;;;;;;60.25;14.82;;;10.80;99.90;;;;;;6370088;22;20046;-77
2022/10/14 08:43:32;;;;;;;46.97;14.68;;;10.80;99.90;;;;;;6341650;22;20018;-77
2022/10/14 08:46:11;;;;;;;32.72;12.27;;;10.80;99.90;;;;;;6370321;22;20013;-77
2022/10/14 08:48:38;;;;;;;38.85;14.48;;;10.80;99.90;;;;;;6370061;22;20030;-77
2022/10/14 08:51:08;;;;;;;63.88;15.25;;;10.90;99.90;;;;;;6369922;22;20429;-77
2022/10/14 08:53:57;;;;;;;37.08;13.75;;;10.90;99.90;;;;;;6342243;22;20064;-77
2022/10/14 08:56:23;;;;;;;38.60;13.98;;;11.00;99.90;;;;;;6371554;22;20014;-77
2022/10/14 08:58:50;;;;;;;43.70;14.43;;;11.00;99.90;;;;;;6344117;22;20101;-77
2022/10/14 09:01:22;;;;;;;40.25;14.18;;;11.10;99.90;;;;;;6371534;22;20496;-77
2022/10/14 09:03:49;;;;;;;45.58;13.85;;;11.10;99.90;;;;;;6343825;22;20010;-77
2022/10/14 09:06:25;;;;;;;45.35;15.48;;;11.10;99.90;;;;;;6343642;22;20014;-78
2022/10/14 09:08:54;;;;;;;45.63;15.35;;;11.20;99.90;;;;;;6343116;22;20021;-78
2022/10/14 09:11:21;;;;;;;53.75;16.73;;;11.30;99.90;;;;;;6341424;22;20033;-77
2022/10/14 09:13:55;;;;;;;51.58;16.50;;;11.40;99.90;;;;;;6371056;22;20010;-77
2022/10/14 09:16:29;;;;;;;51.63;17.13;;;11.40;99.90;;;;;;6343862;22;20025;-78
2022/10/14 09:19:13;;;;;;;48.25;16.10;;;11.50;99.90;;;;;;6342555;22;20014;-77
2022/10/14 09:21:48;;;;;;;55.28;17.70;;;11.60;99.90;;;;;;6372136;22;20010;-77
2022/10/14 09:24:19;;;;;;;52.95;17.65;;;11.60;99.90;;;;;;6343871;22;20109;-78
2022/10/14 09:26:47;;;;;;;54.05;17.85;;;11.70;99.90;;;;;;6343714;22;20022;-78
2022/10/14 09:29:27;;;;;;;56.65;19.00;;;11.70;99.90;;;;;;6343644;22;20048;-78
2022/10/14 09:31:57;;;;;;;52.85;17.73;;;11.70;99.90;;;;;;6372038;22;20042;-79
2022/10/14 09:34:50;;;;;;;55.97;18.17;;;11.70;99.90;;;;;;6343707;22;20089;-76
2022/10/14 09:37:29;;;;;;;50.55;18.55;;;11.80;99.90;;;;;;6338241;22;20026;-78
2022/10/14 09:40:09;;;;;;;49.75;17.42;;;11.80;99.90;;;;;;6343680;22;20029;-78
2022/10/14 09:42:48;;;;;;;53.47;19.63;;;11.90;99.90;;;;;;6371846;22;20011;-78
2022/10/14 09:45:21;;;;;;;53.05;19.13;;;12.00;99.90;;;;;;6343652;22;20066;-77
2022/10/14 09:47:55;;;;;;;52.83;18.75;;;12.00;99.90;;;;;;6343601;22;20011;-77
2022/10/14 09:50:34;;;;;;;45.58;17.48;;;12.10;99.90;;;;;;6343380;22;20371;-78
2022/10/14 09:53:03;;;;;;;52.95;18.35;;;12.10;99.90;;;;;;6371446;22;20014;-78
2022/10/14 09:55:31;;;;;;;48.63;19.42;;;12.10;99.90;;;;;;6343529;22;20050;-78
2022/10/14 09:58:04;;;;;;;46.80;19.30;;;12.10;99.90;;;;;;6343391;22;20015;-78
2022/10/14 10:00:33;;;;;;;48.50;19.30;;;12.10;99.90;;;;;;6343407;22;20025;-78
2022/10/14 10:02:59;;;;;;;46.22;19.20;;;12.10;99.90;;;;;;6343410;22;20018;-78
2022/10/14 10:05:26;;;;;;;50.35;19.83;;;12.20;99.90;;;;;;6371667;22;20075;-77
2022/10/14 10:08:17;;;;;;;51.92;21.63;;;12.20;99.90;;;;;;6370880;22;20346;-77
2022/10/14 10:11:04;;;;;;;51.95;21.45;;;12.30;99.90;;;;;;6343301;22;20018;-78
2022/10/14 10:13:42;;;;;;;53.97;19.80;;;12.40;99.90;;;;;;6343289;22;20018;-77
2022/10/14 10:16:25;;;;;;;56.30;20.15;;;12.40;99.90;;;;;;6343385;22;20089;-78
2022/10/14 10:18:54;;;;;;;52.78;22.05;;;12.50;99.90;;;;;;6343130;22;20089;-77
2022/10/14 10:21:26;;;;;;;53.75;20.85;;;12.60;99.90;;;;;;6343290;22;20010;-77
2022/10/14 10:23:54;;;;;;;49.60;19.33;;;12.60;99.90;;;;;;6343235;22;20018;-77
2022/10/14 10:26:26;;;;;;;51.50;21.80;;;12.70;99.90;;;;;;6343212;22;20014;-77
2022/10/14 10:28:56;;;;;;;52.97;20.33;;;12.70;99.90;;;;;;6343075;22;20014;-79
2022/10/14 10:31:57;;;;;;;50.13;21.63;;;12.60;99.90;;;;;;6343146;22;20022;-77
2022/10/14 10:34:43;;;;;;;47.40;21.10;;;12.70;99.90;;;;;;6370925;22;20021;-77
2022/10/14 10:37:22;;;;;;;45.47;20.27;;;12.70;99.90;;;;;;6343138;22;20457;-77
2022/10/14 10:40:20;;;;;;;49.03;22.58;;;12.60;99.90;;;;;;6343103;22;20392;-78
2022/10/14 10:43:07;;;;;;;47.08;22.08;;;12.70;99.90;;;;;;6370879;22;20064;-78
2022/10/14 10:45:58;;;;;;;48.78;21.38;;;12.70;99.90;;;;;;6343053;22;20098;-77
2022/10/14 10:48:40;;;;;;;46.38;21.60;;;12.70;99.90;;;;;;6295779;22;20033;-77
2022/10/14 10:51:11;;;;;;;45.50;20.27;;;12.70;99.90;;;;;;6343069;22;20037;-78
2022/10/14 10:53:54;;;;;;;43.35;20.63;;;12.70;99.90;;;;;;6342903;22;20434;-78
2022/10/14 10:56:37;;;;;;;44.08;21.20;;;12.70;99.90;;;;;;6370804;22;20089;-78
2022/10/14 10:59:21;;;;;;;44.85;21.27;;;12.70;99.90;;;;;;6370813;22;20456;-78
2022/10/14 11:01:51;;;;;;;45.08;19.95;;;12.80;99.90;;;;;;6370551;22;20046;-77
2022/10/14 11:04:49;;;;;;;40.80;20.35;;;12.80;99.90;;;;;;6370599;22;20377;-80
2022/10/14 11:13:48;;;;;;;38.92;18.23;;;13.00;99.90;;;;;;6370977;22;20025;-77
2022/10/14 11:16:34;;;;;;;37.63;18.33;;;13.10;99.90;;;;;;6370726;22;20595;-79
2022/10/14 11:19:26;;;;;;;36.45;17.05;;;13.00;99.90;;;;;;6370820;22;20244;-77
2022/10/14 11:22:18;;;;;;;33.65;16.58;;;13.00;99.90;;;;;;6364375;22;20010;-78
2022/10/14 11:25:10;;;;;;;33.80;16.45;;;13.00;99.90;;;;;;6370691;22;20048;-81
2022/10/14 11:27:44;;;;;;;37.03;15.60;;;13.00;99.90;;;;;;6311373;22;20441;-78
2022/10/14 11:30:15;;;;;;;34.58;16.80;;;13.10;99.90;;;;;;6342601;22;20014;-79
2022/10/14 11:33:08;;;;;;;32.50;15.68;;;13.00;99.90;;;;;;6370844;22;20087;-79
2022/10/14 11:35:53;;;;;;;31.85;15.52;;;13.10;99.90;;;;;;6370786;22;20010;-79
2022/10/14 11:38:37;;;;;;;34.47;15.52;;;13.10;99.90;;;;;;6370941;22;20018;-80
2022/10/14 11:41:21;;;;;;;35.33;16.00;;;13.10;99.90;;;;;;6342679;22;20019;-79
2022/10/14 11:44:08;;;;;;;31.98;14.23;;;13.10;99.90;;;;;;6370803;22;20013;-79
2022/10/14 11:46:38;;;;;;;33.05;15.00;;;13.10;99.90;;;;;;6342616;22;20421;-80
2022/10/14 11:49:26;;;;;;;30.13;14.57;;;13.30;99.90;;;;;;6370684;22;20022;-78
2022/10/14 11:52:02;;;;;;;30.23;14.52;;;13.30;99.90;;;;;;6342495;22;20015;-80
2022/10/14 11:54:44;;;;;;;27.45;13.45;;;13.30;99.90;;;;;;6342515;22;20446;-79
2022/10/14 11:57:32;;;;;;;26.67;13.90;;;13.30;99.90;;;;;;6342700;22;20109;-80
2022/10/14 12:00:12;;;;;;;26.27;13.05;;;13.30;99.90;;;;;;6342601;22;20050;-80
2022/10/14 12:03:11;;;;;;;26.88;12.32;;;13.30;99.90;;;;;;6342564;22;20068;-79
2022/10/14 12:05:49;;;;;;;26.77;12.18;;;13.40;99.90;;;;;;6370221;22;20319;-79
2022/10/14 12:08:20;;;;;;;23.40;12.02;;;13.40;99.90;;;;;;6342592;22;20093;-80
2022/10/14 12:11:07;;;;;;;22.27;11.23;;;13.40;99.90;;;;;;6370275;22;20060;-79
2022/10/14 12:13:41;;;;;;;23.65;11.07;;;13.50;99.90;;;;;;6342335;22;20334;-80
2022/10/14 12:16:12;;;;;;;20.27;10.48;;;13.50;99.90;;;;;;6370831;22;20021;-79
2022/10/14 12:18:38;;;;;;;19.58;9.52;;;13.40;99.90;;;;;;6370672;22;20140;-80
2022/10/14 12:21:26;;;;;;;17.52;8.70;;;13.40;99.90;;;;;;6370419;22;20523;-80
2022/10/14 12:24:14;;;;;;;19.13;9.20;;;13.40;99.90;;;;;;6342538;22;20068;-80
2022/10/14 12:26:50;;;;;;;16.80;8.45;;;13.50;99.90;;;;;;6370776;22;20059;-79
2022/10/14 12:29:23;;;;;;;17.25;8.85;;;13.50;99.90;;;;;;6370389;22;20508;-79
2022/10/14 12:32:04;;;;;;;15.63;7.55;;;13.40;99.90;;;;;;6372312;22;20014;-79
2022/10/14 12:34:39;;;;;;;14.05;7.90;;;13.40;99.90;;;;;;6344472;22;20014;-79
2022/10/14 12:37:22;;;;;;;14.55;7.38;;;13.40;99.90;;;;;;6372581;22;20041;-79
2022/10/14 12:39:51;;;;;;;15.93;7.05;;;13.50;99.90;;;;;;6344413;22;20066;-80
2022/10/14 12:42:17;;;;;;;14.10;6.65;;;13.40;99.90;;;;;;6344388;22;20406;-80
2022/10/14 12:44:51;;;;;;;15.70;7.40;;;13.50;99.90;;;;;;6372297;22;20076;-80
2022/10/14 12:47:33;;;;;;;10.88;5.97;;;13.50;99.90;;;;;;6372288;22;20384;-80
2022/10/14 12:50:14;;;;;;;13.45;6.25;;;13.40;99.90;;;;;;6372523;22;20015;-80
2022/10/14 12:52:45;;;;;;;13.63;6.28;;;13.40;99.90;;;;;;6372339;22;20045;-81
2022/10/14 12:55:32;;;;;;;10.95;5.70;;;13.40;99.90;;;;;;6372543;22;20011;-80
2022/10/14 12:58:04;;;;;;;14.77;6.88;;;13.40;99.90;;;;;;6344258;22;20451;-80
2022/10/14 13:00:42;;;;;;;10.65;6.13;;;13.40;99.90;;;;;;6372208;22;20028;-80
2022/10/14 13:03:20;;;;;;;12.45;6.55;;;13.40;99.90;;;;;;6372507;22;20015;-79
2022/10/14 13:05:46;;;;;;;11.82;5.93;;;13.40;99.90;;;;;;6344511;22;20310;-78
2022/10/14 13:08:22;;;;;;;11.10;5.93;;;13.40;99.90;;;;;;6372428;22;20020;-81
2022/10/14 13:11:07;;;;;;;13.15;6.50;;;13.30;99.90;;;;;;6372254;22;20049;-78